BEL3TX EBBR-EDDH
Flight info
| Callsign | BEL3TX |
|---|---|
| Flight time | 0h 48m |
| Altitude | 37000 |
| Route | NIK DCT NEPTU DCT TENLI DCT RIBSO RIBSO7A |
| Aircraft | A320/M-DE3FGHIJ1LORVWY/H |
Departure
| Time | 2026-05-07 09:45 |
|---|---|
| Airport | Brussels Airport (EBBR) |
Arrival
| Time | 2026-05-07 10:33 |
|---|---|
| Airport | Hamburg Helmut Schmidt Airport (EDDH) |
| Time | Latitude | Longitude | Altitude | Speed | Heading |
|---|---|---|---|---|---|
| 2026-05-07 09:23 | 50.90393 | 4.48538 | 121 ft | 0 kts | 155° |
| 2026-05-07 09:37 | 50.90398 | 4.48534 | 121 ft | 2 kts | 155° |
| 2026-05-07 09:38 | 50.90415 | 4.48521 | 116 ft | 3 kts | 151° |
| 2026-05-07 09:38 | 50.90433 | 4.48505 | 118 ft | 3 kts | 145° |
| 2026-05-07 09:38 | 50.90448 | 4.48485 | 119 ft | 3 kts | 134° |
| 2026-05-07 09:38 | 50.90460 | 4.48461 | 117 ft | 3 kts | 106° |
| 2026-05-07 09:39 | 50.90462 | 4.48441 | 117 ft | 1 kts | 66° |
| 2026-05-07 09:39 | 50.90461 | 4.48439 | 117 ft | 0 kts | 65° |
| 2026-05-07 09:41 | 50.90476 | 4.48488 | 121 ft | 12 kts | 65° |
| 2026-05-07 09:41 | 50.90510 | 4.48605 | 120 ft | 11 kts | 65° |
| 2026-05-07 09:41 | 50.90543 | 4.48720 | 119 ft | 11 kts | 65° |
| 2026-05-07 09:42 | 50.90564 | 4.48796 | 119 ft | 11 kts | 66° |
| 2026-05-07 09:42 | 50.90597 | 4.48909 | 119 ft | 11 kts | 65° |
| 2026-05-07 09:42 | 50.90639 | 4.49051 | 120 ft | 21 kts | 64° |
| 2026-05-07 09:42 | 50.90705 | 4.49279 | 118 ft | 23 kts | 67° |
| 2026-05-07 09:43 | 50.90769 | 4.49507 | 122 ft | 23 kts | 65° |
| 2026-05-07 09:43 | 50.90838 | 4.49732 | 123 ft | 17 kts | 54° |
| 2026-05-07 09:43 | 50.90933 | 4.49801 | 121 ft | 16 kts | 35° |
| 2026-05-07 09:43 | 50.91033 | 4.49909 | 119 ft | 19 kts | 20° |
| 2026-05-07 09:44 | 50.91137 | 4.49911 | 118 ft | 14 kts | 303° |
| 2026-05-07 09:44 | 50.91119 | 4.49822 | 118 ft | 9 kts | 250° |
| 2026-05-07 09:44 | 50.91022 | 4.49481 | 118 ft | 69 kts | 245° |
| 2026-05-07 09:44 | 50.90732 | 4.48473 | 119 ft | 130 kts | 245° |
| 2026-05-07 09:45 | 50.90286 | 4.46931 | 161 ft | 172 kts | 247° |
| 2026-05-07 09:45 | 50.89827 | 4.45275 | 890 ft | 162 kts | 248° |
| 2026-05-07 09:45 | 50.89736 | 4.43513 | 1474 ft | 166 kts | 294° |
| 2026-05-07 09:45 | 50.90505 | 4.42221 | 2031 ft | 167 kts | 335° |
| 2026-05-07 09:46 | 50.91604 | 4.41353 | 2346 ft | 188 kts | 334° |
| 2026-05-07 09:46 | 50.92823 | 4.40312 | 2596 ft | 210 kts | 333° |
| 2026-05-07 09:46 | 50.94177 | 4.39117 | 2884 ft | 235 kts | 332° |
| 2026-05-07 09:46 | 50.95669 | 4.37770 | 3407 ft | 255 kts | 331° |
| 2026-05-07 09:47 | 50.97227 | 4.36344 | 4277 ft | 261 kts | 331° |
| 2026-05-07 09:47 | 50.98807 | 4.34888 | 5196 ft | 264 kts | 330° |
| 2026-05-07 09:47 | 51.00402 | 4.33411 | 6070 ft | 267 kts | 328° |
| 2026-05-07 09:47 | 51.02019 | 4.31907 | 6904 ft | 271 kts | 328° |
| 2026-05-07 09:48 | 51.03657 | 4.30383 | 7708 ft | 275 kts | 329° |
| 2026-05-07 09:48 | 51.05318 | 4.28834 | 8520 ft | 279 kts | 328° |
| 2026-05-07 09:48 | 51.07002 | 4.27261 | 9338 ft | 283 kts | 328° |
| 2026-05-07 09:48 | 51.08712 | 4.25668 | 10132 ft | 287 kts | 329° |
| 2026-05-07 09:49 | 51.10558 | 4.24257 | 10506 ft | 307 kts | 344° |
| 2026-05-07 09:49 | 51.12758 | 4.24087 | 10715 ft | 331 kts | 11° |
| 2026-05-07 09:49 | 51.14869 | 4.25650 | 11202 ft | 343 kts | 39° |
| 2026-05-07 09:49 | 51.16544 | 4.28385 | 11875 ft | 348 kts | 47° |
| 2026-05-07 09:50 | 51.18180 | 4.31258 | 12601 ft | 351 kts | 47° |
| 2026-05-07 09:50 | 51.19828 | 4.34161 | 13324 ft | 355 kts | 47° |
| 2026-05-07 09:50 | 51.21495 | 4.37096 | 13995 ft | 359 kts | 47° |
| 2026-05-07 09:50 | 51.23182 | 4.40068 | 14610 ft | 363 kts | 47° |
| 2026-05-07 09:51 | 51.24880 | 4.43067 | 15231 ft | 366 kts | 47° |
| 2026-05-07 09:51 | 51.26592 | 4.46090 | 15866 ft | 369 kts | 47° |
| 2026-05-07 09:51 | 51.28320 | 4.49138 | 16477 ft | 372 kts | 47° |
| 2026-05-07 09:51 | 51.30068 | 4.52213 | 17075 ft | 376 kts | 47° |
| 2026-05-07 09:52 | 51.31833 | 4.55320 | 17676 ft | 379 kts | 47° |
| 2026-05-07 09:52 | 51.33609 | 4.58454 | 18259 ft | 382 kts | 47° |
| 2026-05-07 09:52 | 51.35398 | 4.61624 | 18785 ft | 386 kts | 47° |
| 2026-05-07 09:52 | 51.37204 | 4.64825 | 19309 ft | 388 kts | 47° |
| 2026-05-07 09:53 | 51.39019 | 4.68049 | 19836 ft | 391 kts | 47° |
| 2026-05-07 09:53 | 51.40847 | 4.71302 | 20379 ft | 394 kts | 47° |
| 2026-05-07 09:53 | 51.42687 | 4.74586 | 20903 ft | 397 kts | 47° |
| 2026-05-07 09:53 | 51.44540 | 4.77897 | 21428 ft | 400 kts | 47° |
| 2026-05-07 09:54 | 51.46404 | 4.81224 | 21934 ft | 404 kts | 47° |
| 2026-05-07 09:54 | 51.48297 | 4.84599 | 22445 ft | 406 kts | 47° |
| 2026-05-07 09:54 | 51.50162 | 4.87930 | 22955 ft | 409 kts | 47° |
| 2026-05-07 09:54 | 51.52072 | 4.91349 | 23442 ft | 412 kts | 47° |
| 2026-05-07 09:55 | 51.54015 | 4.94836 | 23879 ft | 414 kts | 47° |
| 2026-05-07 09:55 | 51.55915 | 4.98250 | 24263 ft | 417 kts | 47° |
| 2026-05-07 09:55 | 51.57878 | 5.01781 | 24650 ft | 419 kts | 47° |
| 2026-05-07 09:55 | 51.59822 | 5.05290 | 25022 ft | 421 kts | 47° |
| 2026-05-07 09:56 | 51.61775 | 5.08818 | 25397 ft | 424 kts | 47° |
| 2026-05-07 09:56 | 51.63742 | 5.12370 | 25747 ft | 426 kts | 47° |
| 2026-05-07 09:56 | 51.65719 | 5.15941 | 26097 ft | 428 kts | 47° |
| 2026-05-07 09:56 | 51.67704 | 5.19533 | 26449 ft | 430 kts | 47° |
| 2026-05-07 09:57 | 51.69694 | 5.23143 | 26788 ft | 433 kts | 47° |
| 2026-05-07 09:57 | 51.71696 | 5.26785 | 27141 ft | 434 kts | 47° |
| 2026-05-07 09:57 | 51.73704 | 5.30442 | 27476 ft | 436 kts | 47° |
| 2026-05-07 09:57 | 51.75720 | 5.34120 | 27793 ft | 439 kts | 47° |
| 2026-05-07 09:58 | 51.77722 | 5.37771 | 28117 ft | 441 kts | 47° |
| 2026-05-07 09:58 | 51.79757 | 5.41489 | 28434 ft | 443 kts | 48° |
| 2026-05-07 09:58 | 51.81799 | 5.45229 | 28736 ft | 445 kts | 48° |
| 2026-05-07 09:58 | 51.83845 | 5.48986 | 29035 ft | 447 kts | 48° |
| 2026-05-07 09:59 | 51.85901 | 5.52769 | 29325 ft | 448 kts | 48° |
| 2026-05-07 09:59 | 51.87966 | 5.56572 | 29605 ft | 450 kts | 48° |
| 2026-05-07 09:59 | 51.90038 | 5.60387 | 29876 ft | 452 kts | 48° |
| 2026-05-07 09:59 | 51.92115 | 5.64218 | 30131 ft | 454 kts | 48° |
| 2026-05-07 10:00 | 51.94202 | 5.68071 | 30350 ft | 456 kts | 48° |
| 2026-05-07 10:00 | 51.96293 | 5.71942 | 30556 ft | 457 kts | 48° |
| 2026-05-07 10:00 | 51.98392 | 5.75835 | 30750 ft | 459 kts | 48° |
| 2026-05-07 10:00 | 52.00498 | 5.79748 | 30958 ft | 460 kts | 48° |
| 2026-05-07 10:01 | 52.02600 | 5.83658 | 31233 ft | 460 kts | 48° |
| 2026-05-07 10:01 | 52.04701 | 5.87569 | 31518 ft | 459 kts | 48° |
| 2026-05-07 10:01 | 52.06796 | 5.91474 | 31797 ft | 458 kts | 48° |
| 2026-05-07 10:01 | 52.08890 | 5.95379 | 32090 ft | 457 kts | 48° |
| 2026-05-07 10:02 | 52.10977 | 5.99272 | 32370 ft | 457 kts | 48° |
| 2026-05-07 10:02 | 52.13063 | 6.03171 | 32651 ft | 456 kts | 49° |
| 2026-05-07 10:02 | 52.15148 | 6.07081 | 32913 ft | 456 kts | 48° |
| 2026-05-07 10:02 | 52.17229 | 6.10993 | 33187 ft | 456 kts | 49° |
| 2026-05-07 10:03 | 52.19307 | 6.14906 | 33453 ft | 456 kts | 49° |
| 2026-05-07 10:03 | 52.21352 | 6.18764 | 33732 ft | 455 kts | 49° |
| 2026-05-07 10:03 | 52.23413 | 6.22665 | 33999 ft | 455 kts | 49° |
| 2026-05-07 10:03 | 52.25484 | 6.26581 | 34239 ft | 454 kts | 49° |
| 2026-05-07 10:04 | 52.27563 | 6.30477 | 34445 ft | 454 kts | 48° |
| 2026-05-07 10:04 | 52.29657 | 6.34372 | 34657 ft | 454 kts | 48° |
| 2026-05-07 10:04 | 52.31750 | 6.38248 | 34842 ft | 455 kts | 48° |
| 2026-05-07 10:04 | 52.33823 | 6.42088 | 35008 ft | 455 kts | 48° |
| 2026-05-07 10:05 | 52.35920 | 6.45988 | 35055 ft | 456 kts | 48° |
| 2026-05-07 10:05 | 52.40092 | 6.53796 | 35074 ft | 456 kts | 49° |
| 2026-05-07 10:05 | 52.42174 | 6.57717 | 35286 ft | 456 kts | 49° |
| 2026-05-07 10:06 | 52.44254 | 6.61647 | 35468 ft | 456 kts | 49° |
| 2026-05-07 10:06 | 52.46336 | 6.65583 | 35652 ft | 456 kts | 49° |
| 2026-05-07 10:06 | 52.48417 | 6.69515 | 35819 ft | 456 kts | 49° |
| 2026-05-07 10:06 | 52.50500 | 6.73455 | 35996 ft | 457 kts | 49° |
| 2026-05-07 10:07 | 52.52586 | 6.77406 | 36157 ft | 457 kts | 49° |
| 2026-05-07 10:07 | 52.54647 | 6.81309 | 36315 ft | 457 kts | 49° |
| 2026-05-07 10:07 | 52.56734 | 6.85264 | 36480 ft | 457 kts | 49° |
| 2026-05-07 10:07 | 52.58819 | 6.89218 | 36637 ft | 457 kts | 49° |
| 2026-05-07 10:08 | 52.60907 | 6.93190 | 36794 ft | 457 kts | 49° |
| 2026-05-07 10:08 | 52.62991 | 6.97162 | 36949 ft | 457 kts | 49° |
| 2026-05-07 10:08 | 52.65072 | 7.01139 | 37050 ft | 458 kts | 49° |
| 2026-05-07 10:09 | 52.69224 | 7.09106 | 37057 ft | 458 kts | 49° |
| 2026-05-07 10:09 | 52.73341 | 7.17030 | 37057 ft | 458 kts | 49° |
| 2026-05-07 10:10 | 52.77494 | 7.25040 | 37059 ft | 458 kts | 49° |
| 2026-05-07 10:10 | 52.81640 | 7.33050 | 37007 ft | 459 kts | 49° |
| 2026-05-07 10:10 | 52.83714 | 7.37068 | 36739 ft | 458 kts | 49° |
| 2026-05-07 10:11 | 52.85778 | 7.41076 | 36481 ft | 457 kts | 49° |
| 2026-05-07 10:11 | 52.87842 | 7.45093 | 36226 ft | 457 kts | 49° |
| 2026-05-07 10:11 | 52.89877 | 7.49062 | 35977 ft | 456 kts | 49° |
| 2026-05-07 10:11 | 52.91933 | 7.53079 | 35727 ft | 456 kts | 49° |
| 2026-05-07 10:12 | 52.93981 | 7.57093 | 35479 ft | 456 kts | 49° |
| 2026-05-07 10:12 | 52.96028 | 7.61109 | 35236 ft | 455 kts | 49° |
| 2026-05-07 10:12 | 52.98070 | 7.65119 | 34987 ft | 454 kts | 49° |
| 2026-05-07 10:12 | 53.00111 | 7.69124 | 34567 ft | 454 kts | 49° |
| 2026-05-07 10:13 | 53.02147 | 7.73123 | 33523 ft | 458 kts | 49° |
| 2026-05-07 10:13 | 53.04180 | 7.77128 | 32978 ft | 444 kts | 49° |
| 2026-05-07 10:13 | 53.06139 | 7.80999 | 32419 ft | 432 kts | 49° |
| 2026-05-07 10:13 | 53.08055 | 7.84788 | 31841 ft | 421 kts | 49° |
| 2026-05-07 10:14 | 53.09920 | 7.88485 | 31312 ft | 412 kts | 49° |
| 2026-05-07 10:14 | 53.11724 | 7.92062 | 30788 ft | 405 kts | 49° |
| 2026-05-07 10:14 | 53.13531 | 7.95649 | 30265 ft | 402 kts | 49° |
| 2026-05-07 10:14 | 53.15325 | 7.99212 | 29703 ft | 400 kts | 49° |
| 2026-05-07 10:15 | 53.17115 | 8.02769 | 29186 ft | 398 kts | 49° |
| 2026-05-07 10:15 | 53.18888 | 8.06300 | 28678 ft | 395 kts | 49° |
| 2026-05-07 10:15 | 53.20652 | 8.09817 | 28169 ft | 393 kts | 49° |
| 2026-05-07 10:15 | 53.22381 | 8.13270 | 27676 ft | 391 kts | 49° |
| 2026-05-07 10:16 | 53.24118 | 8.16745 | 27191 ft | 389 kts | 49° |
| 2026-05-07 10:16 | 53.25851 | 8.20216 | 26706 ft | 387 kts | 49° |
| 2026-05-07 10:16 | 53.27570 | 8.23667 | 26229 ft | 385 kts | 50° |
| 2026-05-07 10:16 | 53.29281 | 8.27111 | 25766 ft | 383 kts | 50° |
| 2026-05-07 10:17 | 53.30981 | 8.30539 | 25315 ft | 381 kts | 50° |
| 2026-05-07 10:17 | 53.32667 | 8.33941 | 24866 ft | 379 kts | 50° |
| 2026-05-07 10:17 | 53.34345 | 8.37328 | 24422 ft | 377 kts | 50° |
| 2026-05-07 10:17 | 53.36019 | 8.40711 | 23979 ft | 374 kts | 50° |
| 2026-05-07 10:18 | 53.37657 | 8.44028 | 23524 ft | 373 kts | 50° |
| 2026-05-07 10:18 | 53.39305 | 8.47373 | 23045 ft | 370 kts | 50° |
| 2026-05-07 10:18 | 53.40940 | 8.50689 | 22608 ft | 367 kts | 50° |
| 2026-05-07 10:18 | 53.42559 | 8.53979 | 22171 ft | 364 kts | 50° |
| 2026-05-07 10:19 | 53.44165 | 8.57253 | 21732 ft | 362 kts | 50° |
| 2026-05-07 10:19 | 53.45761 | 8.60508 | 21281 ft | 360 kts | 50° |
| 2026-05-07 10:19 | 53.47330 | 8.63706 | 20842 ft | 358 kts | 50° |
| 2026-05-07 10:19 | 53.48915 | 8.66942 | 20390 ft | 357 kts | 50° |
| 2026-05-07 10:20 | 53.50496 | 8.70173 | 19939 ft | 356 kts | 50° |
| 2026-05-07 10:20 | 53.52068 | 8.73392 | 19484 ft | 356 kts | 50° |
| 2026-05-07 10:20 | 53.53630 | 8.76626 | 19032 ft | 358 kts | 53° |
| 2026-05-07 10:20 | 53.54777 | 8.80349 | 18537 ft | 362 kts | 74° |
| 2026-05-07 10:21 | 53.55058 | 8.84534 | 17969 ft | 362 kts | 96° |
| 2026-05-07 10:21 | 53.54436 | 8.88573 | 17311 ft | 355 kts | 117° |
| 2026-05-07 10:21 | 53.53211 | 8.92089 | 16633 ft | 350 kts | 123° |
| 2026-05-07 10:21 | 53.51891 | 8.95527 | 15966 ft | 348 kts | 124° |
| 2026-05-07 10:22 | 53.50564 | 8.98925 | 15213 ft | 345 kts | 124° |
| 2026-05-07 10:22 | 53.49246 | 9.02272 | 14473 ft | 342 kts | 124° |
| 2026-05-07 10:22 | 53.47930 | 9.05570 | 13740 ft | 338 kts | 124° |
| 2026-05-07 10:22 | 53.47065 | 9.07720 | 13207 ft | 335 kts | 124° |
| 2026-05-07 10:23 | 53.45333 | 9.11985 | 12161 ft | 330 kts | 124° |
| 2026-05-07 10:23 | 53.44037 | 9.15138 | 11387 ft | 326 kts | 124° |
| 2026-05-07 10:23 | 53.42748 | 9.18240 | 10636 ft | 321 kts | 124° |
| 2026-05-07 10:23 | 53.41894 | 9.20262 | 10148 ft | 318 kts | 124° |
| 2026-05-07 10:24 | 53.40673 | 9.23325 | 9354 ft | 312 kts | 114° |
| 2026-05-07 10:24 | 53.40132 | 9.26766 | 8555 ft | 303 kts | 90° |
| 2026-05-07 10:24 | 53.40212 | 9.30257 | 7871 ft | 295 kts | 85° |
| 2026-05-07 10:24 | 53.40369 | 9.33631 | 7345 ft | 284 kts | 84° |
| 2026-05-07 10:25 | 53.40527 | 9.36866 | 6842 ft | 273 kts | 84° |
| 2026-05-07 10:25 | 53.40841 | 9.39925 | 6342 ft | 262 kts | 75° |
| 2026-05-07 10:25 | 53.41290 | 9.42829 | 5814 ft | 253 kts | 74° |
| 2026-05-07 10:25 | 53.41740 | 9.45596 | 5303 ft | 245 kts | 74° |
| 2026-05-07 10:26 | 53.42192 | 9.48309 | 4783 ft | 238 kts | 74° |
| 2026-05-07 10:26 | 53.42640 | 9.50946 | 4272 ft | 232 kts | 74° |
| 2026-05-07 10:26 | 53.43085 | 9.53521 | 3735 ft | 226 kts | 74° |
| 2026-05-07 10:26 | 53.43524 | 9.56015 | 3222 ft | 220 kts | 74° |
| 2026-05-07 10:27 | 53.43948 | 9.58408 | 3030 ft | 208 kts | 74° |
| 2026-05-07 10:27 | 53.44372 | 9.60748 | 3037 ft | 211 kts | 71° |
| 2026-05-07 10:27 | 53.45121 | 9.62866 | 3039 ft | 214 kts | 54° |
| 2026-05-07 10:27 | 53.46078 | 9.64791 | 3033 ft | 215 kts | 52° |
| 2026-05-07 10:28 | 53.47033 | 9.66675 | 3031 ft | 214 kts | 52° |
| 2026-05-07 10:28 | 53.47994 | 9.68588 | 3032 ft | 214 kts | 52° |
| 2026-05-07 10:28 | 53.48953 | 9.70504 | 3039 ft | 214 kts | 52° |
| 2026-05-07 10:28 | 53.49911 | 9.72420 | 3035 ft | 213 kts | 52° |
| 2026-05-07 10:29 | 53.50865 | 9.74329 | 3036 ft | 214 kts | 52° |
| 2026-05-07 10:29 | 53.51821 | 9.76244 | 3038 ft | 214 kts | 52° |
| 2026-05-07 10:29 | 53.52764 | 9.78133 | 2896 ft | 204 kts | 52° |
| 2026-05-07 10:30 | 53.54497 | 9.81610 | 2450 ft | 188 kts | 52° |
| 2026-05-07 10:30 | 53.55328 | 9.83279 | 2164 ft | 183 kts | 51° |
| 2026-05-07 10:30 | 53.56104 | 9.84838 | 1913 ft | 164 kts | 52° |
| 2026-05-07 10:30 | 53.56803 | 9.86242 | 1690 ft | 149 kts | 52° |
| 2026-05-07 10:31 | 53.57456 | 9.87558 | 1499 ft | 146 kts | 52° |
| 2026-05-07 10:31 | 53.58085 | 9.88826 | 1315 ft | 136 kts | 53° |
| 2026-05-07 10:31 | 53.58685 | 9.90035 | 1128 ft | 134 kts | 51° |
| 2026-05-07 10:31 | 53.59281 | 9.91237 | 920 ft | 134 kts | 52° |
| 2026-05-07 10:32 | 53.59864 | 9.92430 | 759 ft | 131 kts | 53° |
| 2026-05-07 10:32 | 53.60449 | 9.93628 | 593 ft | 131 kts | 53° |
| 2026-05-07 10:32 | 53.61037 | 9.94806 | 428 ft | 133 kts | 54° |
| 2026-05-07 10:32 | 53.61627 | 9.95966 | 212 ft | 130 kts | 53° |
| 2026-05-07 10:33 | 53.62206 | 9.97133 | 49 ft | 128 kts | 53° |
| 2026-05-07 10:33 | 53.62684 | 9.98107 | 42 ft | 83 kts | 51° |
| 2026-05-07 10:33 | 53.62960 | 9.98665 | 45 ft | 49 kts | 51° |
| 2026-05-07 10:33 | 53.63129 | 9.99015 | 46 ft | 32 kts | 50° |
| 2026-05-07 10:34 | 53.63259 | 9.99282 | 47 ft | 28 kts | 57° |
| 2026-05-07 10:34 | 53.63286 | 9.99571 | 48 ft | 15 kts | 99° |
| 2026-05-07 10:34 | 53.63277 | 9.99661 | 48 ft | 0 kts | 99° |
| 2026-05-07 10:35 | 53.63276 | 9.99668 | 48 ft | 3 kts | 99° |
| 2026-05-07 10:35 | 53.63284 | 9.99768 | 48 ft | 14 kts | 62° |
| 2026-05-07 10:35 | 53.63349 | 9.99901 | 48 ft | 16 kts | 49° |
| 2026-05-07 10:35 | 53.63420 | 10.00051 | 48 ft | 17 kts | 54° |
| 2026-05-07 10:36 | 53.63383 | 10.00218 | 48 ft | 17 kts | 148° |
| 2026-05-07 10:36 | 53.63294 | 10.00237 | 48 ft | 12 kts | 176° |
| 2026-05-07 10:36 | 53.63217 | 10.00248 | 48 ft | 11 kts | 176° |
| 2026-05-07 10:36 | 53.63148 | 10.00253 | 46 ft | 9 kts | 176° |
| 2026-05-07 10:37 | 53.63089 | 10.00260 | 48 ft | 8 kts | 176° |
| 2026-05-07 10:37 | 53.63065 | 10.00273 | 48 ft | 1 kts | 109° |
| 2026-05-07 10:37 | 53.63076 | 10.00322 | 48 ft | 7 kts | 84° |
| 2026-05-07 10:37 | 53.63074 | 10.00374 | 48 ft | 2 kts | 93° |
| 2026-05-07 10:38 | 53.63074 | 10.00377 | 48 ft | 0 kts | 93° |